Time;durP1;ratioP1;P1;durP2;ratioP2;P2;SDS_P1;SDS_P2;PMS_P1;PMS_P2;Temp;Humidity;BMP_temperature;BMP_pressure;BME280_temperature;BME280_humidity;BME280_pressure;Samples;Min_cycle;Max_cycle;Signal;HPM_P1;HPM_P2
2022/10/12 00:01:06;;;;;;;7.47;2.45;;;;;;;;;;5032952;28;20029;-83
2022/10/12 00:03:33;;;;;;;7.45;2.25;;;;;;;;;;5032663;28;20025;-83
2022/10/12 00:06:07;;;;;;;5.85;2.05;;;;;;;;;;5032282;28;20036;-83
2022/10/12 00:08:34;;;;;;;4.97;2.03;;;;;;;;;;5032516;28;20032;-83
2022/10/12 00:11:01;;;;;;;7.43;2.60;;;;;;;;;;5032369;28;20043;-82
2022/10/12 00:13:27;;;;;;;8.95;2.33;;;;;;;;;;4989947;28;1207434;-82
2022/10/12 00:15:53;;;;;;;3.47;2.10;;;;;;;;;;5032683;28;20030;-83
2022/10/12 00:18:20;;;;;;;5.55;2.40;;;;;;;;;;5032847;28;20210;-82
2022/10/12 00:20:46;;;;;;;11.02;2.38;;;;;;;;;;5031940;28;20021;-83
2022/10/12 00:23:13;;;;;;;7.68;2.30;;;;;;;;;;5032680;28;20024;-83
2022/10/12 00:25:40;;;;;;;7.63;2.38;;;;;;;;;;5032444;28;20014;-82
2022/10/12 00:28:07;;;;;;;6.82;2.70;;;;;;;;;;5032280;28;20033;-82
2022/10/12 00:30:33;;;;;;;4.70;2.50;;;;;;;;;;5032790;28;20025;-82
2022/10/12 00:33:00;;;;;;;5.63;2.53;;;;;;;;;;5032527;28;20021;-83
2022/10/12 00:35:28;;;;;;;4.47;2.30;;;;;;;;;;5032612;28;20029;-82
2022/10/12 00:37:55;;;;;;;9.90;2.65;;;;;;;;;;5032392;28;20014;-82
2022/10/12 00:40:22;;;;;;;5.78;2.33;;;;;;;;;;5032404;28;20036;-82
2022/10/12 00:42:48;;;;;;;7.97;2.83;;;;;;;;;;5032060;28;20126;-83
2022/10/12 00:45:15;;;;;;;2.95;2.22;;;;;;;;;;5032130;28;20029;-83
2022/10/12 00:47:47;;;;;;;4.38;2.53;;;;;;;;;;5032235;28;20037;-83
2022/10/12 00:50:13;;;;;;;9.13;2.60;;;;;;;;;;5032036;28;20020;-82
2022/10/12 00:52:58;;;;;;;5.88;2.40;;;;;;;;;;5032224;28;20044;-83
2022/10/12 00:55:26;;;;;;;6.55;2.17;;;;;;;;;;5032291;28;20459;-83
2022/10/12 00:57:53;;;;;;;7.75;2.42;;;;;;;;;;5031914;28;20025;-83
2022/10/12 01:00:20;;;;;;;10.77;2.72;;;;;;;;;;5031476;28;20030;-83
2022/10/12 01:02:48;;;;;;;3.97;2.40;;;;;;;;;;5032352;28;20029;-83
2022/10/12 01:05:14;;;;;;;6.95;2.50;;;;;;;;;;5032397;28;20025;-83
2022/10/12 01:07:41;;;;;;;5.38;2.22;;;;;;;;;;5031893;28;20041;-83
2022/10/12 01:10:07;;;;;;;7.50;2.50;;;;;;;;;;5032077;28;20018;-83
2022/10/12 01:12:34;;;;;;;6.82;2.47;;;;;;;;;;5030490;28;20490;-83
2022/10/12 01:15:00;;;;;;;5.97;2.33;;;;;;;;;;5032163;28;20030;-83
2022/10/12 01:17:53;;;;;;;7.22;2.80;;;;;;;;;;5031920;28;20506;-82
2022/10/12 01:20:19;;;;;;;8.35;2.80;;;;;;;;;;5032447;28;20022;-83
2022/10/12 01:23:04;;;;;;;6.70;2.58;;;;;;;;;;5031994;28;20021;-82
2022/10/12 01:25:49;;;;;;;7.38;2.58;;;;;;;;;;5030317;28;20017;-83
2022/10/12 01:28:18;;;;;;;3.38;2.28;;;;;;;;;;5032284;28;20389;-82
2022/10/12 01:30:48;;;;;;;6.95;2.65;;;;;;;;;;5030991;28;20035;-82
2022/10/12 01:33:21;;;;;;;4.45;2.80;;;;;;;;;;5031856;28;20487;-83
2022/10/12 01:35:56;;;;;;;5.80;2.20;;;;;;;;;;5031817;28;20025;-82
2022/10/12 01:38:25;;;;;;;3.97;2.40;;;;;;;;;;5032155;28;20033;-82
2022/10/12 01:40:58;;;;;;;5.45;2.50;;;;;;;;;;5031339;28;20021;-82
2022/10/12 01:43:32;;;;;;;6.38;2.60;;;;;;;;;;5031947;28;20037;-83
2022/10/12 01:46:04;;;;;;;8.25;2.80;;;;;;;;;;5031962;28;20032;-82
2022/10/12 01:48:31;;;;;;;5.07;2.42;;;;;;;;;;5031563;28;20031;-82
2022/10/12 01:50:59;;;;;;;9.13;2.67;;;;;;;;;;5031181;28;20034;-82
2022/10/12 01:53:31;;;;;;;4.85;2.42;;;;;;;;;;5031552;28;20024;-82
2022/10/12 01:56:06;;;;;;;3.67;2.03;;;;;;;;;;5031289;28;20038;-83
2022/10/12 01:58:38;;;;;;;5.85;2.42;;;;;;;;;;5031805;28;20032;-83
2022/10/12 02:01:04;;;;;;;11.55;2.72;;;;;;;;;;5031893;28;20022;-82
2022/10/12 02:03:35;;;;;;;5.65;2.45;;;;;;;;;;5031698;28;20414;-82
2022/10/12 02:06:03;;;;;;;8.50;2.65;;;;;;;;;;5031853;28;20398;-82
2022/10/12 02:08:33;;;;;;;4.60;2.38;;;;;;;;;;5031382;28;20025;-82
2022/10/12 02:11:02;;;;;;;6.72;2.33;;;;;;;;;;5031309;28;20036;-83
2022/10/12 02:13:30;;;;;;;4.78;2.55;;;;;;;;;;5034872;28;20506;-82
2022/10/12 02:15:58;;;;;;;6.05;2.78;;;;;;;;;;5035098;28;20032;-81
2022/10/12 02:18:24;;;;;;;8.38;2.30;;;;;;;;;;5035200;28;20033;-82
2022/10/12 02:20:53;;;;;;;9.43;2.65;;;;;;;;;;5034740;28;20505;-83
2022/10/12 02:23:21;;;;;;;5.45;2.17;;;;;;;;;;5034484;28;20487;-82
2022/10/12 02:25:48;;;;;;;6.10;2.58;;;;;;;;;;5035112;28;20029;-83
2022/10/12 02:28:16;;;;;;;6.32;2.92;;;;;;;;;;5034677;28;20051;-82
2022/10/12 02:31:01;;;;;;;6.57;2.35;;;;;;;;;;5034716;28;20471;-82
2022/10/12 02:33:49;;;;;;;4.93;2.67;;;;;;;;;;5034744;28;20027;-83
2022/10/12 02:36:23;;;;;;;4.72;2.90;;;;;;;;;;5035161;28;20033;-82
2022/10/12 02:38:59;;;;;;;3.83;2.35;;;;;;;;;;5034255;28;20021;-83
2022/10/12 02:41:30;;;;;;;4.93;2.45;;;;;;;;;;5034381;28;20022;-83
2022/10/12 02:43:58;;;;;;;4.32;2.30;;;;;;;;;;5033915;28;20032;-83
2022/10/12 02:46:25;;;;;;;5.65;2.50;;;;;;;;;;5035003;28;20051;-82
2022/10/12 02:48:53;;;;;;;8.13;2.85;;;;;;;;;;5034128;28;20032;-83
2022/10/12 02:51:21;;;;;;;9.38;2.50;;;;;;;;;;5034184;28;20022;-82
2022/10/12 02:53:47;;;;;;;4.00;2.47;;;;;;;;;;5034534;28;20028;-82
2022/10/12 02:56:14;;;;;;;8.57;2.95;;;;;;;;;;5034667;28;20022;-82
2022/10/12 02:58:43;;;;;;;7.03;2.88;;;;;;;;;;5033166;28;20034;-83
2022/10/12 03:01:09;;;;;;;6.45;3.33;;;;;;;;;;5034340;28;20021;-83
2022/10/12 03:03:36;;;;;;;6.45;2.78;;;;;;;;;;5034449;28;20038;-82
2022/10/12 03:06:02;;;;;;;8.63;3.05;;;;;;;;;;5034132;28;20040;-83
2022/10/12 03:08:28;;;;;;;5.47;2.70;;;;;;;;;;5033759;28;20026;-82
2022/10/12 03:11:00;;;;;;;10.57;2.75;;;;;;;;;;5034139;28;20044;-83
2022/10/12 03:13:26;;;;;;;;;;;;;;;;;;5034476;28;20064;-83
2022/10/12 03:15:52;;;;;;;8.30;2.92;;;;;;;;;;5034033;28;19909;-83
2022/10/12 03:18:18;;;;;;;3.78;2.50;;;;;;;;;;5034130;28;20056;-82
2022/10/12 03:20:48;;;;;;;5.07;2.75;;;;;;;;;;5033989;28;20014;-82
2022/10/12 03:23:14;;;;;;;6.05;2.60;;;;;;;;;;5032780;28;20398;-83
2022/10/12 03:25:41;;;;;;;5.72;2.50;;;;;;;;;;5033457;28;20104;-82
2022/10/12 03:28:07;;;;;;;6.38;2.95;;;;;;;;;;5033651;28;20029;-83
2022/10/12 03:30:33;;;;;;;5.63;2.60;;;;;;;;;;5034383;28;20032;-83
2022/10/12 03:33:00;;;;;;;8.57;3.13;;;;;;;;;;5033782;28;20401;-83
2022/10/12 03:35:26;;;;;;;6.68;2.42;;;;;;;;;;5033490;28;20025;-83
2022/10/12 03:37:52;;;;;;;4.85;2.70;;;;;;;;;;5033092;28;20025;-83
2022/10/12 03:40:19;;;;;;;8.07;2.90;;;;;;;;;;5033884;28;20031;-83
2022/10/12 03:42:45;;;;;;;4.20;2.70;;;;;;;;;;5033343;28;20386;-83
2022/10/12 03:45:11;;;;;;;5.60;2.58;;;;;;;;;;5033278;28;20398;-83
2022/10/12 03:47:38;;;;;;;5.93;2.90;;;;;;;;;;5033485;28;20025;-83
2022/10/12 03:50:05;;;;;;;9.02;2.83;;;;;;;;;;5033447;28;20024;-83
2022/10/12 03:52:31;;;;;;;7.45;3.00;;;;;;;;;;5033115;28;20021;-83
2022/10/12 03:54:57;;;;;;;8.25;3.00;;;;;;;;;;5033553;28;20492;-83
2022/10/12 03:57:24;;;;;;;5.68;2.78;;;;;;;;;;5033006;28;20032;-82
2022/10/12 03:59:50;;;;;;;6.05;2.78;;;;;;;;;;5033066;28;20061;-83
2022/10/12 04:02:17;;;;;;;9.85;3.05;;;;;;;;;;5033369;28;20049;-83
2022/10/12 04:04:43;;;;;;;5.57;3.38;;;;;;;;;;5032913;28;20397;-82
2022/10/12 04:07:09;;;;;;;12.23;3.28;;;;;;;;;;5032965;28;20037;-84
2022/10/12 04:09:36;;;;;;;5.32;3.08;;;;;;;;;;5053010;28;20017;-83
2022/10/12 04:12:02;;;;;;;6.50;2.88;;;;;;;;;;5052915;28;20035;-83
2022/10/12 04:14:28;;;;;;;8.07;3.05;;;;;;;;;;5052678;28;20033;-83
2022/10/12 04:16:55;;;;;;;4.65;2.42;;;;;;;;;;5051441;28;20029;-83
2022/10/12 04:19:21;;;;;;;6.65;2.80;;;;;;;;;;5052165;28;20035;-82
2022/10/12 04:21:48;;;;;;;6.18;2.83;;;;;;;;;;5051466;28;20037;-83
2022/10/12 04:24:14;;;;;;;5.13;2.80;;;;;;;;;;5052799;28;20037;-83
2022/10/12 04:26:40;;;;;;;6.35;2.45;;;;;;;;;;5052494;28;20029;-83
2022/10/12 04:29:06;;;;;;;11.18;2.88;;;;;;;;;;5052952;28;20021;-83
2022/10/12 04:31:33;;;;;;;5.60;2.65;;;;;;;;;;5052806;28;20025;-82
2022/10/12 04:33:59;;;;;;;5.63;2.75;;;;;;;;;;5052025;28;20485;-83
2022/10/12 04:36:26;;;;;;;5.25;2.95;;;;;;;;;;5052330;28;20571;-82
2022/10/12 04:38:53;;;;;;;7.28;2.90;;;;;;;;;;5052869;28;20021;-82
2022/10/12 04:41:19;;;;;;;6.80;2.80;;;;;;;;;;5052550;28;20035;-82
2022/10/12 04:43:45;;;;;;;6.10;3.33;;;;;;;;;;5046321;28;20027;-83
2022/10/12 04:46:12;;;;;;;7.32;3.60;;;;;;;;;;5032430;28;20498;-83
2022/10/12 04:48:38;;;;;;;9.13;3.60;;;;;;;;;;5032000;28;20026;-83
2022/10/12 04:51:05;;;;;;;5.47;3.03;;;;;;;;;;5032415;28;20441;-83
2022/10/12 04:53:31;;;;;;;8.48;3.20;;;;;;;;;;5032629;28;20030;-82
2022/10/12 04:56:01;;;;;;;7.03;3.53;;;;;;;;;;5032172;28;20025;-83
2022/10/12 04:58:27;;;;;;;4.38;3.35;;;;;;;;;;5032344;28;20022;-83
2022/10/12 05:00:53;;;;;;;7.13;3.03;;;;;;;;;;5032258;28;20465;-83
2022/10/12 05:03:20;;;;;;;7.28;3.30;;;;;;;;;;5031925;28;20021;-83
2022/10/12 05:05:46;;;;;;;10.43;3.42;;;;;;;;;;5031995;28;20513;-83
2022/10/12 05:08:12;;;;;;;8.75;3.33;;;;;;;;;;5031057;28;20036;-83
2022/10/12 05:10:39;;;;;;;7.72;3.15;;;;;;;;;;5032131;28;20482;-83
2022/10/12 05:13:06;;;;;;;6.45;3.53;;;;;;;;;;5031900;28;20502;-83
2022/10/12 05:15:32;;;;;;;9.32;3.28;;;;;;;;;;5031182;28;20026;-83
2022/10/12 05:17:59;;;;;;;4.18;2.92;;;;;;;;;;5031635;28;20498;-83
2022/10/12 05:20:25;;;;;;;6.53;2.80;;;;;;;;;;5032340;28;20067;-83
2022/10/12 05:22:51;;;;;;;9.65;2.88;;;;;;;;;;5032034;28;20040;-83
2022/10/12 05:25:18;;;;;;;7.68;2.90;;;;;;;;;;5032063;28;20044;-83
2022/10/12 05:27:44;;;;;;;4.95;3.00;;;;;;;;;;5031998;28;20034;-83
2022/10/12 05:30:11;;;;;;;6.00;2.80;;;;;;;;;;5031948;28;20021;-83
2022/10/12 05:32:37;;;;;;;5.30;2.92;;;;;;;;;;5031575;28;20030;-83
2022/10/12 05:35:04;;;;;;;7.18;3.20;;;;;;;;;;5031890;28;20062;-83
2022/10/12 05:37:30;;;;;;;5.47;3.30;;;;;;;;;;5031733;28;20022;-83
2022/10/12 05:39:56;;;;;;;5.47;2.58;;;;;;;;;;5032046;28;20021;-83
2022/10/12 05:42:23;;;;;;;5.88;2.83;;;;;;;;;;5032030;28;20410;-82
2022/10/12 05:44:49;;;;;;;4.45;2.97;;;;;;;;;;5031857;28;20474;-83
2022/10/12 05:47:15;;;;;;;4.63;2.80;;;;;;;;;;5032547;28;20029;-83
2022/10/12 05:49:42;;;;;;;8.27;3.20;;;;;;;;;;5050865;28;20406;-83
2022/10/12 05:52:08;;;;;;;6.95;3.25;;;;;;;;;;5035531;28;20405;-83
2022/10/12 05:54:34;;;;;;;10.32;3.20;;;;;;;;;;5035652;28;20030;-83
2022/10/12 05:57:01;;;;;;;6.00;2.90;;;;;;;;;;5035587;28;20039;-83
2022/10/12 05:59:27;;;;;;;9.82;3.13;;;;;;;;;;5035108;28;20017;-82
2022/10/12 06:01:53;;;;;;;8.85;3.47;;;;;;;;;;5034946;28;20021;-83
2022/10/12 06:04:19;;;;;;;10.45;3.55;;;;;;;;;;5035308;28;20021;-83
2022/10/12 06:06:46;;;;;;;6.10;3.72;;;;;;;;;;5035698;28;20040;-83
2022/10/12 06:09:12;;;;;;;9.13;3.30;;;;;;;;;;5035121;28;20021;-83
2022/10/12 06:11:39;;;;;;;6.68;3.33;;;;;;;;;;5034758;28;20078;-83
2022/10/12 06:14:05;;;;;;;8.85;3.20;;;;;;;;;;5031449;28;20460;-83
2022/10/12 06:16:31;;;;;;;9.35;3.40;;;;;;;;;;5031768;28;20024;-83
2022/10/12 06:18:58;;;;;;;7.20;3.20;;;;;;;;;;5031357;28;20086;-80
2022/10/12 06:21:24;;;;;;;4.97;3.40;;;;;;;;;;5039504;28;20420;-81
2022/10/12 06:23:50;;;;;;;6.28;3.03;;;;;;;;;;5034426;28;20052;-81
2022/10/12 06:26:17;;;;;;;12.38;2.83;;;;;;;;;;5034589;28;20029;-81
2022/10/12 06:28:43;;;;;;;6.70;3.00;;;;;;;;;;5033651;28;20041;-82
2022/10/12 06:31:10;;;;;;;8.80;3.47;;;;;;;;;;5032354;28;20659;-81
2022/10/12 06:33:36;;;;;;;14.70;3.60;;;;;;;;;;5036205;28;20051;-82
2022/10/12 06:36:02;;;;;;;7.00;3.00;;;;;;;;;;5033912;28;20488;-82
2022/10/12 06:38:29;;;;;;;5.90;3.17;;;;;;;;;;5036024;28;20102;-83
2022/10/12 06:40:55;;;;;;;9.15;3.65;;;;;;;;;;5038951;28;20025;-83
2022/10/12 06:43:23;;;;;;;951.10;60.30;;;;;;;;;;5033185;28;20079;-82
2022/10/12 06:45:49;;;;;;;411.00;26.98;;;;;;;;;;5033585;28;20091;-83
2022/10/12 06:48:15;;;;;;;198.65;13.10;;;;;;;;;;5033561;28;20033;-83
2022/10/12 06:50:42;;;;;;;81.03;6.15;;;;;;;;;;5033858;28;20390;-82
2022/10/12 06:53:08;;;;;;;31.52;4.50;;;;;;;;;;5033609;28;20037;-83
2022/10/12 06:55:34;;;;;;;15.48;3.58;;;;;;;;;;5039549;28;20035;-82
2022/10/12 06:58:01;;;;;;;17.05;3.80;;;;;;;;;;5032769;28;20075;-83
2022/10/12 07:00:27;;;;;;;8.63;3.22;;;;;;;;;;5032996;28;20052;-82
2022/10/12 07:02:54;;;;;;;11.48;3.85;;;;;;;;;;5033595;28;20037;-81
2022/10/12 07:05:20;;;;;;;10.38;4.13;;;;;;;;;;5033756;28;20017;-82
2022/10/12 07:07:46;;;;;;;6.38;3.42;;;;;;;;;;5033373;28;20044;-83
2022/10/12 07:10:13;;;;;;;5.78;3.53;;;;;;;;;;5032147;28;20017;-82
2022/10/12 07:12:39;;;;;;;7.45;3.35;;;;;;;;;;5034049;28;20051;-82
2022/10/12 07:15:06;;;;;;;12.52;3.35;;;;;;;;;;5032989;28;20032;-83
2022/10/12 07:17:32;;;;;;;7.40;2.90;;;;;;;;;;5036175;28;20024;-83
2022/10/12 07:19:58;;;;;;;5.88;2.95;;;;;;;;;;5037592;28;20029;-82
2022/10/12 07:22:25;;;;;;;9.45;3.25;;;;;;;;;;5033129;28;20095;-84
2022/10/12 07:24:52;;;;;;;26.95;4.72;;;;;;;;;;5033113;28;20029;-80
2022/10/12 07:27:18;;;;;;;13.95;3.42;;;;;;;;;;5031422;28;20040;-83
2022/10/12 07:29:44;;;;;;;10.18;3.67;;;;;;;;;;5032705;28;20424;-83
2022/10/12 07:32:11;;;;;;;8.82;3.85;;;;;;;;;;5031762;28;20021;-82
2022/10/12 07:34:37;;;;;;;11.27;3.85;;;;;;;;;;5036846;28;20066;-83
2022/10/12 07:37:03;;;;;;;9.85;4.53;;;;;;;;;;5036472;28;20029;-83
2022/10/12 07:39:30;;;;;;;7.70;4.38;;;;;;;;;;5032282;28;20035;-83
2022/10/12 07:41:56;;;;;;;11.82;4.75;;;;;;;;;;5032465;28;20029;-83
2022/10/12 07:44:23;;;;;;;16.65;4.15;;;;;;;;;;5032124;28;20029;-82
2022/10/12 07:46:49;;;;;;;8.70;4.00;;;;;;;;;;5032720;28;20030;-83
2022/10/12 07:49:16;;;;;;;7.07;3.25;;;;;;;;;;5034329;28;20025;-81
2022/10/12 07:51:42;;;;;;;7.65;3.20;;;;;;;;;;5032144;28;20397;-83
2022/10/12 07:54:08;;;;;;;9.45;2.92;;;;;;;;;;5033427;28;20025;-81
2022/10/12 07:56:35;;;;;;;7.10;2.53;;;;;;;;;;5030717;28;20033;-83
2022/10/12 07:59:01;;;;;;;7.25;2.90;;;;;;;;;;5041482;28;20037;-80
2022/10/12 08:01:28;;;;;;;5.53;2.17;;;;;;;;;;5031423;28;20018;-80
2022/10/12 08:03:55;;;;;;;6.72;2.42;;;;;;;;;;5034060;28;20037;-80
2022/10/12 08:06:23;;;;;;;8.88;2.33;;;;;;;;;;5031614;28;20504;-80
2022/10/12 08:08:50;;;;;;;5.40;2.03;;;;;;;;;;5031807;28;20508;-81
2022/10/12 08:11:18;;;;;;;6.82;2.50;;;;;;;;;;5030986;28;20037;-79
2022/10/12 08:13:44;;;;;;;11.13;2.90;;;;;;;;;;5031745;28;20059;-80
2022/10/12 08:16:12;;;;;;;4.30;2.20;;;;;;;;;;5031491;28;20029;-81
2022/10/12 08:18:39;;;;;;;5.63;2.40;;;;;;;;;;5031796;28;20056;-79
2022/10/12 08:21:06;;;;;;;184.00;10.88;;;;;;;;;;5032450;28;20025;-79
2022/10/12 08:23:34;;;;;;;14.50;2.20;;;;;;;;;;5031331;28;20038;-79
2022/10/12 08:26:00;;;;;;;8.93;2.38;;;;;;;;;;5030171;28;20033;-80
2022/10/12 08:28:26;;;;;;;7.50;2.55;;;;;;;;;;5031900;28;20029;-79
2022/10/12 08:30:53;;;;;;;21.73;3.05;;;;;;;;;;5031687;28;20028;-79
2022/10/12 08:33:19;;;;;;;9.13;2.03;;;;;;;;;;5031493;28;20505;-80
2022/10/12 08:35:49;;;;;;;13.20;2.60;;;;;;;;;;5030785;28;20029;-81
2022/10/12 08:38:16;;;;;;;8.93;2.22;;;;;;;;;;5045519;28;20025;-80
2022/10/12 08:40:45;;;;;;;5.00;2.35;;;;;;;;;;5051065;28;20025;-81
2022/10/12 08:43:14;;;;;;;5.25;2.20;;;;;;;;;;5036847;28;20018;-81
2022/10/12 08:45:50;;;;;;;4.22;1.80;;;;;;;;;;5031012;28;20031;-81
2022/10/12 08:48:22;;;;;;;7.97;2.35;;;;;;;;;;5030889;28;20490;-81
2022/10/12 08:50:54;;;;;;;9.52;2.42;;;;;;;;;;5030714;28;20022;-81
2022/10/12 08:53:25;;;;;;;8.02;2.10;;;;;;;;;;5031048;28;20031;-81
2022/10/12 08:55:52;;;;;;;7.00;2.30;;;;;;;;;;5049806;28;20031;-81
2022/10/12 08:58:22;;;;;;;4.10;2.25;;;;;;;;;;5041701;28;20361;-81
2022/10/12 09:00:51;;;;;;;5.53;2.10;;;;;;;;;;5031093;28;20029;-80
2022/10/12 09:03:21;;;;;;;7.53;2.70;;;;;;;;;;5030817;28;20386;-81
2022/10/12 09:05:57;;;;;;;10.63;2.95;;;;;;;;;;5031226;28;20021;-80
2022/10/12 09:08:31;;;;;;;4.35;2.40;;;;;;;;;;5031042;28;20052;-81
2022/10/12 09:11:07;;;;;;;7.72;2.78;;;;;;;;;;5031652;28;20028;-81
2022/10/12 09:13:42;;;;;;;4.20;2.30;;;;;;;;;;5029575;28;20049;-81
2022/10/12 09:16:20;;;;;;;5.50;2.42;;;;;;;;;;5030675;28;20032;-81
2022/10/12 09:18:49;;;;;;;7.18;2.65;;;;;;;;;;5030725;28;20025;-81
2022/10/12 09:21:20;;;;;;;6.00;2.47;;;;;;;;;;5030899;28;20029;-78
2022/10/12 09:23:47;;;;;;;4.07;2.08;;;;;;;;;;5034693;28;20029;-79
2022/10/12 09:26:18;;;;;;;7.88;2.50;;;;;;;;;;5034828;28;20036;-81
2022/10/12 09:28:53;;;;;;;8.40;2.38;;;;;;;;;;5035672;28;20036;-80
2022/10/12 09:31:22;;;;;;;5.75;2.47;;;;;;;;;;5034726;28;20032;-79
2022/10/12 09:33:51;;;;;;;6.97;2.67;;;;;;;;;;5035139;28;20041;-80
2022/10/12 09:36:21;;;;;;;7.28;2.40;;;;;;;;;;5034693;28;20487;-79
2022/10/12 09:38:49;;;;;;;6.25;2.88;;;;;;;;;;5034549;28;20030;-80
2022/10/12 09:41:21;;;;;;;6.78;2.67;;;;;;;;;;5034822;28;20095;-81
2022/10/12 09:43:51;;;;;;;9.32;3.08;;;;;;;;;;5034455;28;20032;-81
2022/10/12 09:46:18;;;;;;;;;;;;;;;;;;5035525;28;20483;-81
2022/10/12 09:48:55;;;;;;;10.57;2.53;;;;;;;;;;5034165;28;19916;-81
2022/10/12 09:51:23;;;;;;;8.10;3.22;;;;;;;;;;5034250;28;20031;-81
2022/10/12 09:53:50;;;;;;;7.90;2.80;;;;;;;;;;5033189;28;20035;-80
2022/10/12 09:56:24;;;;;;;10.40;2.95;;;;;;;;;;5030854;28;20021;-80
2022/10/12 09:58:52;;;;;;;8.98;3.08;;;;;;;;;;5036004;28;20033;-80
2022/10/12 10:01:20;;;;;;;5.65;2.45;;;;;;;;;;5038864;28;20024;-81
2022/10/12 10:04:16;;;;;;;6.75;2.63;;;;;;;;;;5033066;28;20044;-80
2022/10/12 10:06:43;;;;;;;11.98;2.78;;;;;;;;;;5013695;28;20045;-82
2022/10/12 10:09:30;;;;;;;8.57;2.83;;;;;;;;;;5013993;28;20036;-81
2022/10/12 10:11:57;;;;;;;10.82;2.88;;;;;;;;;;5014223;28;20036;-82
2022/10/12 10:14:24;;;;;;;4.88;2.22;;;;;;;;;;5014425;28;20035;-81
2022/10/12 10:16:51;;;;;;;7.18;2.30;;;;;;;;;;5046029;28;20041;-82
2022/10/12 10:19:18;;;;;;;6.75;2.53;;;;;;;;;;5033956;28;20014;-82
2022/10/12 10:21:44;;;;;;;4.07;2.15;;;;;;;;;;5033816;28;20055;-71
2022/10/12 10:24:37;;;;;;;5.65;2.35;;;;;;;;;;5034110;28;20033;-82
2022/10/12 10:27:05;;;;;;;5.80;2.28;;;;;;;;;;5033217;28;20049;-81
2022/10/12 10:29:36;;;;;;;7.78;2.70;;;;;;;;;;5033870;28;20025;-81
2022/10/12 10:32:23;;;;;;;6.43;2.28;;;;;;;;;;5033766;28;20512;-81
2022/10/12 10:35:03;;;;;;;6.03;2.47;;;;;;;;;;5033946;28;20028;-82
2022/10/12 10:37:30;;;;;;;5.38;2.53;;;;;;;;;;5032039;28;20028;-82
2022/10/12 10:39:57;;;;;;;5.70;2.05;;;;;;;;;;5033476;28;20026;-82
2022/10/12 10:42:28;;;;;;;2.78;1.83;;;;;;;;;;5033382;28;20044;-81
2022/10/12 10:45:00;;;;;;;7.50;1.92;;;;;;;;;;5033590;28;20018;-82
2022/10/12 10:47:26;;;;;;;9.77;2.10;;;;;;;;;;5033559;28;20474;-82
2022/10/12 10:49:56;;;;;;;5.95;1.85;;;;;;;;;;5033648;28;20022;-82
2022/10/12 10:52:29;;;;;;;8.40;1.70;;;;;;;;;;5033401;28;20030;-81
2022/10/12 10:55:10;;;;;;;6.45;2.42;;;;;;;;;;5034114;28;20037;-82
2022/10/12 10:57:39;;;;;;;5.57;2.17;;;;;;;;;;5030958;28;20025;-82
2022/10/12 11:00:06;;;;;;;6.25;2.28;;;;;;;;;;5033169;28;20493;-81
2022/10/12 11:02:42;;;;;;;6.10;2.15;;;;;;;;;;5032819;28;20024;-82
2022/10/12 11:05:11;;;;;;;7.95;2.22;;;;;;;;;;5033015;28;20036;-82
2022/10/12 11:07:37;;;;;;;6.90;2.08;;;;;;;;;;5032796;28;20524;-81
2022/10/12 11:10:08;;;;;;;8.02;2.72;;;;;;;;;;5033012;28;20017;-82
2022/10/12 11:12:34;;;;;;;;;;;;;;;;;;5033290;28;20026;-81
2022/10/12 11:15:20;;;;;;;7.57;2.65;;;;;;;;;;5032605;28;19915;-82
2022/10/12 11:17:49;;;;;;;8.18;2.08;;;;;;;;;;5010605;28;20034;-81
2022/10/12 11:20:21;;;;;;;7.10;2.15;;;;;;;;;;5010482;28;20041;-82
2022/10/12 11:22:53;;;;;;;9.98;2.13;;;;;;;;;;5010705;28;20036;-82
2022/10/12 11:25:29;;;;;;;10.93;2.20;;;;;;;;;;5010830;28;20048;-82
2022/10/12 11:27:55;;;;;;;8.57;2.25;;;;;;;;;;5010971;28;20621;-82
2022/10/12 11:30:23;;;;;;;6.15;2.35;;;;;;;;;;5010931;28;20030;-82
2022/10/12 11:33:18;;;;;;;9.10;2.30;;;;;;;;;;5011109;28;20049;-81
2022/10/12 11:35:46;;;;;;;8.90;2.30;;;;;;;;;;4995405;28;20037;-82
2022/10/12 11:38:15;;;;;;;16.90;2.50;;;;;;;;;;5010570;28;20499;-82
2022/10/12 11:40:48;;;;;;;6.32;2.60;;;;;;;;;;5010143;28;20029;-82
2022/10/12 11:43:19;;;;;;;7.05;2.13;;;;;;;;;;5010378;28;20083;-82
2022/10/12 11:45:48;;;;;;;9.93;2.13;;;;;;;;;;5009402;28;20454;-82
2022/10/12 11:48:21;;;;;;;4.05;1.65;;;;;;;;;;5025289;28;20042;-82
2022/10/12 11:50:49;;;;;;;5.70;1.67;;;;;;;;;;5009627;28;20573;-82
2022/10/12 11:53:20;;;;;;;6.30;1.77;;;;;;;;;;5010502;28;20045;-82
2022/10/12 11:55:46;;;;;;;;;;;;;;;;;;5025671;28;20042;-82
2022/10/12 11:58:17;;;;;;;5.65;1.98;;;;;;;;;;5032242;28;19911;-82
2022/10/12 12:00:43;;;;;;;8.48;1.90;;;;;;;;;;5030758;28;20405;-82
2022/10/12 12:03:20;;;;;;;4.18;1.77;;;;;;;;;;5032149;28;20486;-82
2022/10/12 12:05:46;;;;;;;3.92;1.65;;;;;;;;;;5031592;28;20067;-82
2022/10/12 12:08:23;;;;;;;4.47;1.27;;;;;;;;;;5031835;28;20037;-81
2022/10/12 12:10:50;;;;;;;7.63;1.67;;;;;;;;;;5031700;28;20025;-82
2022/10/12 12:13:21;;;;;;;3.80;1.40;;;;;;;;;;5031147;28;20064;-82
2022/10/12 12:15:51;;;;;;;3.97;1.17;;;;;;;;;;5046368;28;20026;-81
2022/10/12 12:18:20;;;;;;;4.53;1.48;;;;;;;;;;5031014;28;20272;-82
2022/10/12 12:20:46;;;;;;;3.47;1.50;;;;;;;;;;5027958;28;20022;-82
2022/10/12 12:23:19;;;;;;;3.55;1.17;;;;;;;;;;5031740;28;20474;-82
2022/10/12 12:25:46;;;;;;;4.60;1.08;;;;;;;;;;5031795;28;20028;-82
2022/10/12 12:28:19;;;;;;;5.18;1.48;;;;;;;;;;5031405;28;20033;-82
2022/10/12 12:31:15;;;;;;;6.18;1.23;;;;;;;;;;5031740;28;20021;-82
2022/10/12 12:33:45;;;;;;;3.25;1.00;;;;;;;;;;5022218;28;20041;-81
2022/10/12 12:36:26;;;;;;;2.80;1.17;;;;;;;;;;5031605;28;20021;-82
2022/10/12 12:38:53;;;;;;;2.80;1.30;;;;;;;;;;5031594;28;20142;-81
2022/10/12 12:41:20;;;;;;;4.90;1.20;;;;;;;;;;5031464;28;20021;-82
2022/10/12 12:43:51;;;;;;;6.47;1.58;;;;;;;;;;5031458;28;20025;-82
2022/10/12 12:46:17;;;;;;;5.97;1.70;;;;;;;;;;5031635;28;20037;-81
2022/10/12 12:48:44;;;;;;;3.50;1.42;;;;;;;;;;5030674;28;20494;-81
2022/10/12 12:51:11;;;;;;;11.88;1.90;;;;;;;;;;5031455;28;20505;-81
2022/10/12 12:53:42;;;;;;;5.00;1.60;;;;;;;;;;5031513;28;20029;-81
2022/10/12 12:56:21;;;;;;;7.22;1.42;;;;;;;;;;5031413;28;20033;-81
2022/10/12 12:58:50;;;;;;;7.40;1.90;;;;;;;;;;5030945;28;20486;-82
2022/10/12 13:01:16;;;;;;;8.48;1.50;;;;;;;;;;5031141;28;20033;-81
2022/10/12 13:03:42;;;;;;;8.18;1.70;;;;;;;;;;5046507;28;20099;-81
2022/10/12 13:06:27;;;;;;;7.70;1.55;;;;;;;;;;5030913;28;20051;-81
2022/10/12 13:08:54;;;;;;;3.58;1.55;;;;;;;;;;5011409;28;20405;-81
2022/10/12 13:11:20;;;;;;;5.53;1.58;;;;;;;;;;5011754;28;20073;-81
2022/10/12 13:14:10;;;;;;;3.92;1.55;;;;;;;;;;5011435;28;20045;-80
2022/10/12 13:16:39;;;;;;;11.07;1.85;;;;;;;;;;5008514;28;20038;-81
2022/10/12 13:19:09;;;;;;;6.32;1.70;;;;;;;;;;5009470;28;20038;-81
2022/10/12 13:21:40;;;;;;;3.75;1.30;;;;;;;;;;5008871;28;20044;-82
2022/10/12 13:24:27;;;;;;;3.22;1.30;;;;;;;;;;5008406;28;20030;-81
2022/10/12 13:26:59;;;;;;;6.03;1.75;;;;;;;;;;5008554;28;20037;-81
2022/10/12 13:29:33;;;;;;;7.72;1.88;;;;;;;;;;4998098;28;20033;-81
2022/10/12 13:32:01;;;;;;;6.90;1.73;;;;;;;;;;4988756;28;20023;-79
2022/10/12 13:34:30;;;;;;;6.65;1.73;;;;;;;;;;4989600;28;20046;-81
2022/10/12 13:36:58;;;;;;;3.88;1.45;;;;;;;;;;4990263;28;20048;-81
2022/10/12 13:39:25;;;;;;;8.25;1.98;;;;;;;;;;5008801;28;20036;-81
2022/10/12 13:41:53;;;;;;;6.07;1.65;;;;;;;;;;5008980;28;20044;-81
2022/10/12 13:44:22;;;;;;;4.75;1.50;;;;;;;;;;5019627;28;20029;-81
2022/10/12 13:46:55;;;;;;;12.30;1.70;;;;;;;;;;5028046;28;20511;-81
2022/10/12 13:49:35;;;;;;;9.13;1.38;;;;;;;;;;5020503;28;20434;-81
2022/10/12 13:52:15;;;;;;;5.28;1.40;;;;;;;;;;4988782;28;20042;-81
2022/10/12 13:54:42;;;;;;;4.47;1.53;;;;;;;;;;5009808;28;20417;-81
2022/10/12 13:57:20;;;;;;;8.50;1.48;;;;;;;;;;5011046;28;20018;-82
2022/10/12 13:59:51;;;;;;;4.70;1.40;;;;;;;;;;5010070;28;20022;-82
2022/10/12 14:02:17;;;;;;;;;;;;;;;;;;5011341;28;20026;-80
2022/10/12 14:04:43;;;;;;;5.57;1.42;;;;;;;;;;5027442;28;19908;-81
2022/10/12 14:07:21;;;;;;;3.38;1.30;;;;;;;;;;5022238;28;20044;-81
2022/10/12 14:09:51;;;;;;;5.32;1.40;;;;;;;;;;5044386;28;20026;-82
2022/10/12 14:12:17;;;;;;;9.73;1.80;;;;;;;;;;5014794;28;20026;-81
2022/10/12 14:14:46;;;;;;;5.95;1.48;;;;;;;;;;5013870;28;20045;-81
2022/10/12 14:17:19;;;;;;;4.35;1.40;;;;;;;;;;5016646;28;20272;-81
2022/10/12 14:19:47;;;;;;;5.75;1.65;;;;;;;;;;5033924;28;20032;-81
2022/10/12 14:22:21;;;;;;;6.35;1.88;;;;;;;;;;5033195;28;20040;-81
2022/10/12 14:24:47;;;;;;;3.63;1.63;;;;;;;;;;5032035;28;20025;-81
2022/10/12 14:27:22;;;;;;;4.05;1.60;;;;;;;;;;5033927;28;20030;-80
2022/10/12 14:29:49;;;;;;;4.78;1.80;;;;;;;;;;5029180;28;20083;-81
2022/10/12 14:32:16;;;;;;;10.82;1.50;;;;;;;;;;5039383;28;20043;-81
2022/10/12 14:34:47;;;;;;;9.05;1.42;;;;;;;;;;5053689;28;20032;-80
2022/10/12 14:37:13;;;;;;;5.80;1.80;;;;;;;;;;5054015;28;20025;-81
2022/10/12 14:39:44;;;;;;;5.28;1.40;;;;;;;;;;5054096;28;20047;-81
2022/10/12 14:42:19;;;;;;;7.63;1.20;;;;;;;;;;5053895;28;20036;-81
2022/10/12 14:44:45;;;;;;;2.67;1.25;;;;;;;;;;5038745;28;20401;-80
2022/10/12 14:47:20;;;;;;;7.68;1.55;;;;;;;;;;5034129;28;20393;-81
2022/10/12 14:49:47;;;;;;;6.35;2.60;;;;;;;;;;5034355;28;20495;-81
2022/10/12 14:52:21;;;;;;;8.40;4.55;;;;;;;;;;5034184;28;20039;-81
2022/10/12 14:54:55;;;;;;;12.20;5.38;;;;;;;;;;5034238;28;20027;-81